Del Rey, CA

1:23 AM PDT on March 30, 2017 (GMT -0700)
Del Rey | | Change Station
Active Advisory: Wind Advisory

Elev 335 ft 36.67 °N, 119.65 °W | Updated 5 minutes ago

Clear
Clear
55.9 °F
Feels Like 55.9 °F
N
0.0
Wind Variable Wind from ESE
Gusts 3.0 mph

Today
High -- | Low -- °F
--% Chance of Precip.
Yesterday
High -- | Low -- °F
Precip. -- in
Pressure 30.06 in
Visibility 10.0 miles
Clouds Clear
Dew Point 52 °F
Humidity 85%
Rainfall 0.00 in
Snow Depth Not available.
6:46 AM 7:19 PM
Waxing Crescent, 7% visible
METAR KFAT 300753Z 10003KT 10SM CLR 14/12 A3007 RMK AO2 SLP179 T01440117 402330089
Pressure 30.06 in
Visibility 10.0 miles
Clouds Clear
Dew Point 52 °F
Humidity 85%
Rainfall 0.00 in
Snow Depth Not available.
6:46 AM 7:19 PM
Waxing Crescent, 7% visible
METAR KFAT 300753Z 10003KT 10SM CLR 14/12 A3007 RMK AO2 SLP179 T01440117 402330089

Get Your Daily Forecast Email!

Thanks for signing up!

Be on the lookout for a verification email in your inbox.

You'll start receiving severe weather alerts in your inbox..

×

10-Day Weather Forecast

Almanac

Astronomy

Mar. 30, 2017 Rise Set
Actual Time
Civil Twilight
Nautical Twilight
Astronomical Twilight
Moon
Length of Visible Light
Length of Day
Tomorrow will be .
, % of the Moon is Illuminated

Today's Extremes

State Highs State Lows

Community

WunderPhotos

Upload Photos

1,962,540 photos uploaded!

WunderBlog® & News

Nearby

Air Quality

  Air Quality AQ Index Pollutant
Not available.

Snow Depth

Station Depth Elevation

Earthquake Activity

City Distance Mag. Time & Date
Minimum magnitude displayed is 2.5.

Earthquake Activity

City Distance Mag. Time & Date
Minimum magnitude displayed is 2.5.

Coastal Water Temperatures

Place Temperature

Stations

Nearby Weather Stations

Station Location Temp. Windchill Dew Point Humidity Wind Precip. Elev Updated Type
                   

Watches & Warnings

Wind Advisory
Issued: 9:30 PM PDT Mar. 29, 2017 – National Weather Service

... Wind Advisory in effect from 9 am to 11 PM PDT Thursday...

The National Weather Service in Hanford has issued a Wind
Advisory, which is in effect from 9 am to 11 PM PDT Thursday.

* Winds... northwest 20 to 30 mph with gusts to 40 mph.

* Timing... 9 am through 11 PM Thursday.

* Impacts... difficulty driving... especially for high profile
vehicles.

Precautionary/preparedness actions...

A Wind Advisory means that winds of 35 mph are expected. Winds
this strong can make driving difficult, especially for high
profile vehicles. Use extra caution.



Riley